Flight Track Log - Related Links

Times and Time Zones

All times are in EDT time to prevent confusion due to time zone crossing. See the EJA122 flight status page for this flight to view local times or setup timezone preferences in your user account.

Time Position Orientation Groundspeed Altitude Reporting Facility
EDT Latitude Longitude Course Direction KTS MPH feet Rate Location/Type
Mon 10:03:18 AM 37.7442 -80.3717 179° South 443 510 40,000  Level Washington Center
Mon 10:04:16 AM 37.7822 -80.4686 296° West 443 510 40,000  Level Washington Center
Mon 10:05:16 AM 37.8211 -80.4292 39° Northeast 443 510 40,000 -16,264 Level Washington Center
Mon 10:06:17 AM 37.7514 -80.4561 197° South 376 433 7,200 -14,876 Descending Washington Center
Mon 10:07:00 AM 37.2075 -80.3795 179° South  Level Estimated
Mon 10:07:17 AM 37.6750 -80.4853 197° South 327 376 10,000  Level Washington Center
Mon 10:08:18 AM 37.5858 -80.5217 198° South 305 351 12,700 1,953 Climbing Washington Center
Mon 10:10:09 AM 37.4256 -80.5844 197° South 333 383 15,600 1,509 Climbing Atlanta Center
Mon 10:11:09 AM 37.3325 -80.6172 196° South 338 389 17,000 1,400 Climbing Atlanta Center
Mon 10:12:09 AM 37.2317 -80.6581 198° South 343 395 18,400 1,350 Climbing Atlanta Center
Mon 10:13:09 AM 37.1386 -80.6933 197° South 343 395 19,700 1,200 Climbing Atlanta Center
Mon 10:14:09 AM 37.0414 -80.7208 193° South 350 403 20,800 1,300 Climbing Atlanta Center
Mon 10:15:09 AM 36.9478 -80.7300 184° South 370 426 22,300 1,500 Climbing Atlanta Center
Mon 10:16:09 AM 36.8461 -80.7394 184° South 375 432 23,800 1,600 Climbing Atlanta Center
Mon 10:17:09 AM 36.7378 -80.7517 185° South 370 426 25,500 1,450 Climbing Atlanta Center
Mon 10:18:09 AM 36.6339 -80.7611 184° South 362 417 26,700 1,100 Climbing Atlanta Center
Mon 10:19:09 AM 36.5258 -80.7733 185° South 375 432 27,700 1,000 Climbing Atlanta Center
Mon 10:20:09 AM 36.4197 -80.7853 185° South 386 444 28,700 950 Climbing Atlanta Center
Mon 10:21:09 AM 36.3094 -80.7975 185° South 391 450 29,600 700 Climbing Atlanta Center
Mon 10:22:09 AM 36.1972 -80.8097 185° South 404 465 30,100 450 Climbing Atlanta Center
Mon 10:23:09 AM 36.0808 -80.8222 185° South 411 473 30,500 450 Climbing Atlanta Center
Mon 10:24:09 AM 35.9581 -80.8347 185° South 426 490 31,000 450 Climbing Atlanta Center
Mon 10:25:09 AM 35.8500 -80.8467 185° South 440 506 31,400 450 Climbing Atlanta Center
Mon 10:26:09 AM 35.7269 -80.8567 184° South 445 512 31,900 600 Climbing Atlanta Center
Mon 10:27:09 AM 35.6003 -80.8717 185° South 450 518 32,600 700 Climbing Atlanta Center
Mon 10:28:09 AM 35.4669 -80.8869 185° South 450 518 33,300 700 Climbing Atlanta Center
Mon 10:29:09 AM 35.3422 -80.8994 185° South 444 511 34,000 750 Climbing Atlanta Center
Mon 10:30:09 AM 35.2236 -80.9142 186° South 438 504 34,800 850 Climbing Atlanta Center
Mon 10:31:09 AM 35.1092 -80.9286 186° South 433 498 35,700 600 Climbing Atlanta Center
Mon 10:32:09 AM 34.9906 -80.9406 185° South 428 493 36,000 200 Climbing Atlanta Center
Mon 10:33:09 AM 34.8700 -80.9528 185° South 433 498 36,100 543 Climbing Atlanta Center
Mon 10:35:28 AM 34.6083 -80.9806 185° South 441 507 37,800 663 Climbing Jacksonville Center
Mon 10:36:28 AM 34.4939 -80.9931 185° South 434 499 38,300 550 Climbing Jacksonville Center
Mon 10:37:28 AM 34.3814 -81.0006 183° South 413 475 38,900 500 Climbing Jacksonville Center
Mon 10:38:28 AM 34.2753 -81.0131 186° South 393 452 39,300 400 Climbing Jacksonville Center
Mon 10:40:00 AM 34.0132 -80.9788 174° South  Level Estimated
Mon 10:47:00 AM 32.8165 -80.8250 174° South  Level Estimated
Mon 10:48:00 AM 32.6455 -80.8034 174° South  Level Estimated
Mon 10:49:00 AM 32.4745 -80.7819 174° South  Level Estimated
Mon 10:50:00 AM 32.3036 -80.7604 174° South  Level Estimated
Mon 10:51:00 AM 32.1326 -80.7390 174° South  Level Estimated
Mon 10:52:00 AM 31.9616 -80.7177 174° South  Level Estimated
Mon 10:53:00 AM 31.7906 -80.6965 174° South  Level Estimated
Mon 10:54:00 AM 31.6196 -80.6754 174° South  Level Estimated
Mon 10:55:00 AM 31.4486 -80.6543 174° South  Level Estimated
Mon 10:56:00 AM 31.2776 -80.6333 174° South  Level Estimated
Mon 10:57:00 AM 31.2173 -80.6259 174° South  Level Estimated
Mon 10:58:00 AM 31.1569 -80.6185 174° South  Level Estimated
Mon 10:59:00 AM 31.0965 -80.6112 174° South  Level Estimated
Mon 11:00:00 AM 31.0362 -80.6038 174° South  Level Estimated
Mon 11:01:00 AM 30.9758 -80.5965 174° South  Level Estimated
Mon 11:02:00 AM 30.9154 -80.5891 174° South  Level Estimated
Mon 11:03:00 AM 30.8551 -80.5818 174° South  Level Estimated
Mon 11:04:00 AM 30.7947 -80.5744 174° South  Level Estimated
Mon 11:05:00 AM 30.7343 -80.5671 174° South  Level Estimated
Mon 11:06:00 AM 30.6740 -80.5598 174° South  Level Estimated
Mon 11:07:00 AM 30.6136 -80.5525 174° South  Level Estimated
Mon 11:08:00 AM 30.5532 -80.5452 174° South  Level Estimated
Mon 11:09:00 AM 30.4928 -80.5379 174° South  Level Estimated
Mon 11:10:00 AM 30.4325 -80.5307 174° South  Level Estimated
Mon 11:11:00 AM 30.3721 -80.5234 174° South  Level Estimated
Mon 11:12:00 AM 30.3117 -80.5162 174° South  Level Estimated
Mon 11:13:00 AM 30.2514 -80.5089 174° South  Level Estimated
Mon 11:14:00 AM 30.1910 -80.5017 174° South  Level Estimated
Mon 11:15:00 AM 30.1306 -80.4945 174° South  Level Estimated
Mon 11:16:00 AM 30.0702 -80.4872 174° South  Level Estimated
Mon 11:17:00 AM 30.0099 -80.4800 174° South  Level Estimated
Mon 11:18:00 AM 29.9495 -80.4728 174° South  Level Estimated
Mon 11:19:00 AM 29.8891 -80.4656 174° South  Level Estimated
Mon 11:20:00 AM 29.8288 -80.4585 174° South  Level Estimated
Mon 11:21:00 AM 29.7684 -80.4513 174° South  Level Estimated
Mon 11:22:00 AM 29.7080 -80.4441 174° South  Level Estimated
Mon 11:23:00 AM 29.6477 -80.4370 174° South  Level Estimated
Mon 11:24:00 AM 29.5873 -80.4298 174° South  Level Estimated
Mon 11:25:00 AM 29.5269 -80.4227 174° South  Level Estimated
Mon 11:26:00 AM 29.4665 -80.4155 174° South  Level Estimated
Mon 11:27:00 AM 29.4061 -80.4084 174° South  Level Estimated
Mon 11:28:00 AM 29.3458 -80.4013 174° South  Level Estimated
Mon 11:29:00 AM 29.2854 -80.3942 174° South  Level Estimated
Mon 11:30:00 AM 29.2250 -80.3871 174° South  Level Estimated
Mon 11:31:00 AM 29.1646 -80.3800 174° South  Level Estimated
Mon 11:32:00 AM 29.1042 -80.3729 174° South  Level Estimated
Mon 11:33:00 AM 29.0439 -80.3659 174° South  Level Estimated
Mon 11:34:00 AM 28.9835 -80.3588 174° South  Level Estimated
Mon 11:35:00 AM 28.9231 -80.3517 174° South  Level Estimated
Mon 11:36:00 AM 28.8627 -80.3447 174° South  Level Estimated
Mon 11:37:00 AM 28.8023 -80.3376 174° South  Level Estimated
Mon 11:38:00 AM 28.7420 -80.3306 174° South  Level Estimated
Mon 11:39:00 AM 28.6816 -80.3236 174° South  Level Estimated
Mon 11:40:00 AM 28.6212 -80.3166 174° South  Level Estimated
Mon 11:41:00 AM 28.5608 -80.3096 174° South  Level Estimated
Mon 11:42:00 AM 28.5004 -80.3026 174° South  Level Estimated
Mon 11:43:00 AM 28.4401 -80.2956 174° South  Level Estimated
Mon 11:44:00 AM 28.3797 -80.2886 174° South  Level Estimated
Mon 11:45:00 AM 28.3193 -80.2816 174° South  Level Estimated
Mon 11:46:00 AM 28.2589 -80.2747 174° South  Level Estimated
Mon 11:47:00 AM 28.1985 -80.2677 174° South  Level Estimated
Mon 11:48:00 AM 28.1382 -80.2608 174° South  Level Estimated
Mon 11:49:00 AM 28.0778 -80.2538 174° South  Level Estimated
Mon 11:50:00 AM 28.0174 -80.2469 174° South  Level Estimated
Mon 11:51:00 AM 27.9570 -80.2400 174° South  Level Estimated
Mon 11:52:00 AM 27.8966 -80.2330 174° South  Level Estimated
Mon 11:53:00 AM 27.8362 -80.2261 174° South  Level Estimated
Mon 11:54:00 AM 27.7759 -80.2192 174° South  Level Estimated
Mon 11:55:00 AM 27.7155 -80.2123 174° South  Level Estimated
Mon 11:56:00 AM 27.6551 -80.2054 174° South  Level Estimated
Mon 11:57:00 AM 27.5947 -80.1985 174° South  Level Estimated
Mon 11:58:00 AM 27.5343 -80.1917 174° South  Level Estimated
Mon 11:59:00 AM 27.4739 -80.1848 174° South  Level Estimated
Mon 12:00:00 PM 27.4135 -80.1779 174° South  Level Estimated
Mon 12:01:00 PM 27.3531 -80.1711 174° South  Level Estimated
Mon 12:02:00 PM 27.2927 -80.1643 174° South  Level Estimated
Mon 12:03:00 PM 27.2323 -80.1574 174° South  Level Estimated
Mon 12:04:00 PM 27.1719 -80.1506 174° South  Level Estimated
Mon 12:05:00 PM 27.1116 -80.1438 174° South  Level Estimated
Mon 12:06:00 PM 27.0512 -80.1369 174° South  Level Estimated
Mon 12:07:00 PM 26.9908 -80.1301 174° South  Level Estimated
Mon 12:08:00 PM 26.9304 -80.1233 174° South  Level Estimated
Mon 12:09:00 PM 26.8700 -80.1165 174° South  Level Estimated
Mon 12:10:00 PM 26.8096 -80.1098 174° South  Level Estimated
Mon 12:11:00 PM 26.7492 -80.1030 174° South  Level Estimated
Mon 12:12:00 PM 26.6888 -80.0962 174° South  Level Estimated
Mon 12:13:00 PM 26.6832 -80.0956 174° South  Level Estimated
Mon 12:14:00 PM 26.6832 -80.0956 222° Southwest  Level Estimated
Mon 12:15:00 PM 26.6832 -80.0956 222° Southwest  Level Estimated
Mon 12:16:00 PM 26.6832 -80.0956 222° Southwest  Level Estimated
Mon 12:17:00 PM 26.6832 -80.0956 222° Southwest  Level Estimated
Mon 12:18:00 PM 26.6832 -80.0956 222° Southwest  Level Estimated
Mon 12:19:00 PM 26.6832 -80.0956 222° Southwest  Level Estimated
Mon 12:20:00 PM 26.6832 -80.0956 222° Southwest  Level Estimated
Mon 12:21:00 PM 26.6832 -80.0956 222° Southwest  Level Estimated
Mon 12:22:00 PM 26.6832 -80.0956 222° Southwest  Level Estimated
Mon 12:23:00 PM 26.6832 -80.0956 222° Southwest  Level Estimated
Mon 12:24:00 PM 26.6832 -80.0956 222° Southwest  Level Estimated
Mon 12:25:00 PM 26.6832 -80.0956 222° Southwest  Level Estimated
Mon 12:26:00 PM 26.6832 -80.0956 222° Southwest  Level Estimated
Mon 12:27:00 PM 26.6832 -80.0956 222° Southwest  Level Estimated
Mon 12:28:00 PM 26.6832 -80.0956 222° Southwest  Level Estimated
Mon 12:29:00 PM 26.6832 -80.0956 222° Southwest  Level Estimated
Mon 12:30:00 PM 26.6832 -80.0956 222° Southwest  Level Estimated
Mon 12:31:00 PM 26.6832 -80.0956 222° Southwest  Level Estimated
Mon 12:32:00 PM 26.6832 -80.0956 222° Southwest  Level Estimated
Mon 12:33:00 PM 26.6832 -80.0956 222° Southwest  Level Estimated
Mon 12:34:00 PM 26.6832 -80.0956 222° Southwest  Level Estimated
Mon 12:35:00 PM 26.6832 -80.0956 222° Southwest  Level Estimated
Mon 12:36:00 PM 26.6832 -80.0956 222° Southwest  Level Estimated
Mon 12:37:00 PM 26.6832 -80.0956 222° Southwest  Level Estimated
Mon 12:38:00 PM 26.6832 -80.0956 222° Southwest  Level Estimated
Mon 12:39:00 PM 26.6832 -80.0956 222° Southwest  Level Estimated
Mon 12:40:00 PM 26.6832 -80.0956 222° Southwest  Level Estimated
Mon 12:41:00 PM 26.6832 -80.0956 222° Southwest  Level Estimated
Mon 12:42:00 PM 26.6832 -80.0956 222° Southwest  Level Estimated
Mon 12:43:00 PM 26.6832 -80.0956 222° Southwest  Level Estimated
Mon 12:44:00 PM 26.6832 -80.0956 222° Southwest  Level Estimated
Mon 12:45:00 PM 26.6832 -80.0956 222° Southwest  Level Estimated
Mon 12:46:00 PM 26.6832 -80.0956 222° Southwest  Level Estimated
Mon 12:47:00 PM 26.6832 -80.0956 222° Southwest  Level Estimated
Mon 12:48:00 PM 26.6832 -80.0956 222° Southwest  Level Estimated
Mon 12:49:00 PM 26.6832 -80.0956 222° Southwest  Level Estimated
Mon 12:50:00 PM 26.6832 -80.0956 222° Southwest  Level Estimated
Mon 12:51:00 PM 26.6832 -80.0956 222° Southwest  Level Estimated
Mon 12:52:00 PM 26.6832 -80.0956 222° Southwest  Level Estimated
Mon 12:53:00 PM 26.6832 -80.0956 222° Southwest  Level Estimated
Mon 12:54:00 PM 26.6832 -80.0956 222° Southwest  Level Estimated
Mon 12:55:00 PM 26.6832 -80.0956 222° Southwest  Level Estimated
Mon 12:56:00 PM 26.6832 -80.0956 222° Southwest  Level Estimated
Mon 12:57:00 PM 26.6832 -80.0956 222° Southwest  Level Estimated
Mon 12:58:00 PM 26.6832 -80.0956 222° Southwest  Level Estimated
Mon 12:59:00 PM 26.6832 -80.0956 222° Southwest  Level Estimated
Mon 01:00:00 PM 26.6832 -80.0956 222° Southwest  Level Estimated
Mon 01:01:00 PM 26.6832 -80.0956 222° Southwest  Level Estimated
Mon 01:02:00 PM 26.6832 -80.0956 222° Southwest  Level Estimated
Mon 01:03:00 PM 26.6832 -80.0956 222° Southwest  Level Estimated
Mon 01:04:00 PM 26.6832 -80.0956 222° Southwest  Level Estimated
Mon 01:05:00 PM 26.6832 -80.0956 222° Southwest  Level Estimated
Mon 01:06:00 PM 26.6832 -80.0956 222° Southwest  Level Estimated
Mon 01:07:00 PM 26.6832 -80.0956 222° Southwest  Level Estimated
Mon 01:08:00 PM 26.6832 -80.0956 222° Southwest  Level Estimated
Mon 01:09:00 PM 26.6832 -80.0956 222° Southwest  Level Estimated
Mon 01:10:00 PM 26.6832 -80.0956 222° Southwest  Level Estimated
Mon 01:11:00 PM 26.6832 -80.0956 222° Southwest  Level Estimated
Mon 01:12:00 PM 26.6832 -80.0956 222° Southwest  Level Estimated
Mon 01:13:00 PM 26.6832 -80.0956 222° Southwest  Level Estimated
Mon 01:14:00 PM 26.6832 -80.0956 222° Southwest  Level Estimated
Mon 01:15:00 PM 26.6832 -80.0956 222° Southwest  Level Estimated
Mon 01:16:00 PM 26.6832 -80.0956 222° Southwest  Level Estimated
Mon 01:17:00 PM 26.6832 -80.0956 222° Southwest  Level Estimated

Login

Don't have an account? Register now (free) for customized features, flight alerts, and more!